Time;durP1;ratioP1;P1;durP2;ratioP2;P2;SDS_P1;SDS_P2;PMS_P1;PMS_P2;Temp;Humidity;BMP_temperature;BMP_pressure;BME280_temperature;BME280_humidity;BME280_pressure;Samples;Min_cycle;Max_cycle;Signal;HPM_P1;HPM_P2
2021/09/03 12:30:27;;;;;;;12.93;7.47;;;24.50;92.00;;;;;;12157319;27;20900;-65
2021/09/03 12:36:21;;;;;;;13.32;7.30;;;24.80;91.90;;;;;;12113443;27;20043;-64
2021/09/03 12:42:40;;;;;;;11.18;7.47;;;25.50;91.70;;;;;;12141637;28;20044;-62
2021/09/03 12:48:28;;;;;;;11.32;7.10;;;26.00;90.30;;;;;;12151594;27;20495;-63
2021/09/03 12:54:16;;;;;;;9.38;6.40;;;26.40;88.10;;;;;;12163445;27;20104;-63
2021/09/03 13:00:05;;;;;;;9.93;6.05;;;26.70;87.50;;;;;;12176618;27;20040;-63
2021/09/03 13:05:53;;;;;;;9.60;6.07;;;26.80;85.10;;;;;;12176827;27;20047;-62
2021/09/03 13:11:41;;;;;;;8.02;6.25;;;27.10;83.60;;;;;;12192964;27;21506;-64
2021/09/03 13:17:27;;;;;;;14.13;6.63;;;27.20;82.20;;;;;;12175396;27;20051;-66
2021/09/03 13:23:16;;;;;;;9.30;5.90;;;27.30;81.90;;;;;;12151026;27;20515;-65
2021/09/03 13:29:04;;;;;;;10.27;5.55;;;27.50;80.10;;;;;;12141037;27;20052;-65
2021/09/03 13:34:50;;;;;;;7.47;5.68;;;27.60;79.40;;;;;;12152024;27;20046;-65
2021/09/03 13:40:39;;;;;;;8.70;6.55;;;27.70;78.90;;;;;;12164527;27;20044;-65
2021/09/03 13:46:27;;;;;;;9.77;6.30;;;27.80;77.80;;;;;;12123285;28;20211;-65
2021/09/03 13:52:13;;;;;;;8.73;5.80;;;27.90;78.50;;;;;;12164525;28;20427;-65
2021/09/03 13:58:03;;;;;;;8.32;5.75;;;28.10;78.30;;;;;;12163090;28;20066;-65
2021/09/03 14:03:50;;;;;;;9.60;6.10;;;28.20;77.40;;;;;;12164681;28;20066;-65
2021/09/03 14:09:37;;;;;;;9.00;5.60;;;28.30;76.00;;;;;;12165670;28;20043;-65
2021/09/03 14:15:27;;;;;;;8.95;6.07;;;28.00;75.80;;;;;;12131412;28;20043;-63
2021/09/03 14:21:14;;;;;;;7.50;6.05;;;27.90;78.00;;;;;;12126230;27;20043;-63
2021/09/03 14:27:01;;;;;;;11.18;6.07;;;28.10;75.50;;;;;;12081808;28;20469;-64
2021/09/03 14:32:49;;;;;;;8.40;5.70;;;28.20;75.10;;;;;;12078480;28;20044;-64
2021/09/03 14:38:36;;;;;;;9.95;5.40;;;28.40;75.00;;;;;;12076601;28;20141;-64
2021/09/03 14:44:23;;;;;;;6.60;5.38;;;28.60;74.30;;;;;;12115690;27;20047;-64
2021/09/03 14:50:11;;;;;;;7.65;5.60;;;28.70;73.00;;;;;;12152761;28;20062;-63
2021/09/03 14:55:58;;;;;;;8.02;5.65;;;28.50;73.50;;;;;;12161815;28;20605;-63
2021/09/03 15:01:45;;;;;;;9.88;5.63;;;28.30;74.50;;;;;;12160814;28;20043;-65
2021/09/03 15:07:35;;;;;;;8.63;5.53;;;28.40;74.50;;;;;;12160114;28;20470;-59
2021/09/03 15:13:22;;;;;;;8.20;5.40;;;28.60;73.70;;;;;;12161709;27;20051;-59
2021/09/03 15:19:09;;;;;;;8.65;4.97;;;28.90;73.60;;;;;;12098238;28;20071;-60
2021/09/03 15:24:58;;;;;;;11.52;4.78;;;29.00;73.00;;;;;;12139703;28;20047;-60
2021/09/03 15:30:46;;;;;;;10.27;4.97;;;29.20;71.20;;;;;;12159850;28;20043;-60
2021/09/03 15:36:34;;;;;;;8.80;5.00;;;29.30;70.00;;;;;;12162300;28;20051;-61
2021/09/03 15:42:22;;;;;;;8.70;4.70;;;29.40;70.60;;;;;;12159569;28;20137;-60
2021/09/03 15:48:10;;;;;;;5.07;4.40;;;29.50;70.10;;;;;;12138747;28;20040;-60
2021/09/03 15:53:56;;;;;;;8.75;5.32;;;29.40;69.00;;;;;;12136206;28;20052;-60
2021/09/03 15:59:45;;;;;;;9.25;4.85;;;29.30;69.60;;;;;;12110194;28;20531;-60
2021/09/03 16:05:32;;;;;;;12.32;4.47;;;29.40;69.80;;;;;;12110652;27;20043;-60
2021/09/03 16:11:19;;;;;;;15.82;5.78;;;29.50;67.30;;;;;;12110868;28;20073;-60
2021/09/03 16:17:08;;;;;;;8.07;4.30;;;29.50;68.40;;;;;;12093077;28;20047;-60
2021/09/03 16:22:55;;;;;;;18.25;5.65;;;29.60;68.20;;;;;;12071217;28;20051;-61
2021/09/03 16:28:42;;;;;;;8.50;4.07;;;29.70;68.90;;;;;;12106216;28;20516;-62
2021/09/03 16:34:30;;;;;;;12.18;4.65;;;30.80;66.80;;;;;;12115299;28;20517;-62
2021/09/03 16:40:17;;;;;;;5.57;4.35;;;32.90;61.00;;;;;;12153061;28;20051;-62
2021/09/03 16:46:04;;;;;;;6.57;3.85;;;35.20;58.20;;;;;;12135187;28;20132;-61
2021/09/03 16:51:52;;;;;;;4.72;4.00;;;36.80;56.90;;;;;;12109594;28;20036;-61
2021/09/03 16:57:40;;;;;;;6.15;4.00;;;37.20;55.50;;;;;;12111137;28;20051;-61
2021/09/03 17:03:27;;;;;;;9.43;4.50;;;35.10;59.40;;;;;;12109460;28;20036;-62
2021/09/03 17:09:15;;;;;;;5.22;4.32;;;33.20;65.90;;;;;;12108971;28;20052;-62
2021/09/03 17:15:02;;;;;;;6.25;3.75;;;33.80;64.20;;;;;;12108099;28;20086;-60
2021/09/03 17:20:49;;;;;;;6.72;4.80;;;34.90;60.90;;;;;;12067429;28;21718;-60
2021/09/03 17:26:45;;;;;;;9.75;5.25;;;33.70;63.30;;;;;;12117143;27;20044;-60
2021/09/03 17:32:36;;;;;;;5.93;4.88;;;31.80;68.60;;;;;;12130751;27;20066;-59
2021/09/03 17:38:23;;;;;;;7.85;4.90;;;30.40;72.40;;;;;;12140723;27;20467;-59
2021/09/03 17:44:12;;;;;;;6.85;4.80;;;29.40;76.70;;;;;;12116677;28;20056;-60
2021/09/03 17:49:59;;;;;;;6.93;4.80;;;28.80;78.80;;;;;;12116612;27;20046;-59
2021/09/03 17:55:46;;;;;;;8.68;5.10;;;28.40;80.10;;;;;;12114578;27;20063;-60
2021/09/03 18:01:35;;;;;;;6.57;4.57;;;28.00;80.30;;;;;;12114631;28;20397;-61
2021/09/03 18:07:30;;;;;;;6.93;4.85;;;27.60;82.00;;;;;;12121784;27;20047;-60
2021/09/03 18:13:17;;;;;;;8.98;4.88;;;27.30;83.00;;;;;;12134155;28;20052;-60
2021/09/03 18:19:05;;;;;;;8.02;5.03;;;27.10;83.30;;;;;;12088559;28;20052;-59
2021/09/03 18:24:52;;;;;;;8.98;5.30;;;26.90;83.00;;;;;;12081461;28;20043;-60
2021/09/03 18:30:39;;;;;;;7.65;5.20;;;26.50;84.00;;;;;;12084529;28;20047;-60
2021/09/03 18:36:27;;;;;;;7.28;4.85;;;26.30;85.60;;;;;;12106227;28;21794;-59
2021/09/03 18:42:14;;;;;;;41.33;27.92;;;26.10;86.50;;;;;;12151583;28;20051;-60
2021/09/03 18:48:01;;;;;;;6.63;5.30;;;25.90;86.50;;;;;;12161216;28;20048;-60
2021/09/03 18:53:49;;;;;;;8.60;5.38;;;25.90;87.50;;;;;;12163252;28;20044;-60
2021/09/03 18:59:36;;;;;;;11.07;5.50;;;25.80;88.20;;;;;;12165764;27;20054;-60
2021/09/03 19:05:23;;;;;;;8.90;5.30;;;25.80;87.70;;;;;;12162013;28;20043;-61
2021/09/03 19:11:11;;;;;;;7.82;5.95;;;25.60;88.40;;;;;;12161004;27;20043;-60
2021/09/03 19:16:58;;;;;;;7.18;5.43;;;25.50;88.50;;;;;;12142066;28;20423;-62
2021/09/03 19:22:47;;;;;;;7.97;5.60;;;25.60;89.10;;;;;;12125936;28;20048;-62
2021/09/03 19:28:37;;;;;;;9.57;6.10;;;25.50;89.30;;;;;;12123275;27;20049;-61
2021/09/03 19:34:24;;;;;;;9.10;6.80;;;25.50;89.90;;;;;;12160032;28;20126;-62
2021/09/03 19:40:12;;;;;;;9.93;6.60;;;25.40;90.50;;;;;;12159544;28;20522;-62
2021/09/03 19:46:00;;;;;;;8.88;6.63;;;25.40;90.60;;;;;;12159969;28;20039;-62
2021/09/03 19:51:47;;;;;;;12.13;6.10;;;25.40;90.90;;;;;;12159517;28;20051;-62
2021/09/03 19:57:34;;;;;;;10.77;6.68;;;25.30;90.90;;;;;;12161901;28;20169;-61
2021/09/03 20:03:22;;;;;;;10.75;6.65;;;25.20;91.20;;;;;;12158912;28;20069;-61
2021/09/03 20:09:09;;;;;;;9.95;6.50;;;25.00;91.80;;;;;;12158978;28;20043;-64
2021/09/03 20:14:56;;;;;;;35.65;24.73;;;25.00;91.90;;;;;;12152287;28;20051;-61
2021/09/03 20:20:44;;;;;;;13.68;7.40;;;25.00;92.10;;;;;;12129100;28;20065;-62
2021/09/03 20:26:31;;;;;;;14.40;7.15;;;25.00;92.30;;;;;;12111429;28;20040;-60
2021/09/03 20:32:18;;;;;;;11.57;6.93;;;25.00;92.50;;;;;;12104602;28;20063;-61
2021/09/03 20:38:07;;;;;;;12.65;7.10;;;25.00;92.70;;;;;;12147051;28;20062;-62
2021/09/03 20:43:54;;;;;;;11.80;6.85;;;25.00;92.80;;;;;;12147928;28;20418;-61
2021/09/03 20:49:41;;;;;;;11.60;6.85;;;24.80;92.90;;;;;;12115912;28;20052;-62
